Time;durP1;ratioP1;P1;durP2;ratioP2;P2;SDS_P1;SDS_P2;PMS_P1;PMS_P2;Temp;Humidity;BMP_temperature;BMP_pressure;BME280_temperature;BME280_humidity;BME280_pressure;Samples;Min_cycle;Max_cycle;Signal;HPM_P1;HPM_P2
2023/04/22 00:00:56;;;;;;;11.93;10.73;;;10.70;99.90;;;-141.84;60.32;19901.22;5030658;28;20202;-70
2023/04/22 00:03:24;;;;;;;12.87;11.57;;;10.60;99.90;;;-141.84;59.62;19923.59;5034756;28;20670;-70
2023/04/22 00:05:53;;;;;;;12.70;11.50;;;10.70;99.90;;;-141.84;60.01;19901.22;5034858;28;20658;-69
2023/04/22 00:08:21;;;;;;;13.93;11.27;;;10.70;99.90;;;-141.84;60.25;19917.50;5035218;28;20543;-69
2023/04/22 00:10:51;;;;;;;13.40;11.13;;;10.60;99.90;;;-141.84;60.18;19931.72;5035317;28;20206;-71
2023/04/22 00:13:19;;;;;;;12.30;11.20;;;10.60;99.90;;;-141.84;59.69;19927.66;5034136;28;20226;-71
2023/04/22 00:15:47;;;;;;;15.67;11.20;;;10.60;99.90;;;-141.84;59.68;19921.56;5034326;28;20268;-70
2023/04/22 00:18:15;;;;;;;11.40;10.30;;;10.60;99.90;;;-141.84;60.16;19895.13;5034789;28;20289;-71
2023/04/22 00:20:44;;;;;;;12.23;10.73;;;10.60;99.90;;;-141.84;60.21;19895.13;5034613;28;20217;-69
2023/04/22 00:23:13;;;;;;;11.87;10.57;;;10.60;99.90;;;-141.84;60.69;19903.25;5034661;28;20453;-70
2023/04/22 00:25:41;;;;;;;13.53;10.93;;;10.50;99.90;;;-141.84;60.89;19878.88;5037282;28;20238;-70
2023/04/22 00:28:10;;;;;;;12.67;11.33;;;10.40;99.90;;;-141.84;60.67;19870.75;5037393;28;20209;-69
2023/04/22 00:30:39;;;;;;;12.83;10.93;;;10.40;99.90;;;-141.84;60.42;19899.19;5035175;28;20209;-69
2023/04/22 00:33:08;;;;;;;12.57;11.10;;;10.40;99.90;;;-141.84;60.83;19858.56;5034446;28;20232;-71
2023/04/22 00:35:36;;;;;;;11.23;10.13;;;10.40;99.90;;;-141.84;60.87;19887.00;5036053;28;20309;-69
2023/04/22 00:38:04;;;;;;;11.53;10.33;;;10.40;99.90;;;-141.84;61.02;19878.88;5037565;28;20202;-70
2023/04/22 00:40:32;;;;;;;13.80;11.13;;;10.40;99.90;;;-141.84;60.38;19874.81;5037550;28;20213;-70
2023/04/22 00:43:02;;;;;;;12.90;10.63;;;10.40;99.90;;;-141.84;60.49;19870.75;5036474;28;20198;-71
2023/04/22 00:45:31;;;;;;;11.67;9.97;;;10.40;99.90;;;-141.84;60.47;19909.34;5035658;28;20197;-71
2023/04/22 00:48:00;;;;;;;11.13;10.03;;;10.40;99.90;;;-141.84;60.36;19901.22;5036573;28;20210;-70
2023/04/22 00:50:29;;;;;;;10.70;9.70;;;10.40;99.90;;;-141.84;60.54;19905.28;5034524;28;20209;-70
2023/04/22 00:52:57;;;;;;;12.00;10.00;;;10.40;99.90;;;-141.84;59.99;19947.97;5034365;28;20226;-70
2023/04/22 00:55:27;;;;;;;11.30;9.70;;;10.40;99.90;;;-141.84;60.06;19882.94;5034638;28;20214;-70
2023/04/22 00:58:00;;;;;;;12.23;10.27;;;10.50;99.90;;;-141.84;59.94;19909.34;5034043;28;20206;-70
2023/04/22 01:00:29;;;;;;;12.90;10.60;;;10.40;99.90;;;-141.84;60.07;19897.16;5034151;28;20214;-69
2023/04/22 01:02:59;;;;;;;10.53;9.53;;;10.50;99.90;;;-141.84;59.62;19899.19;5035366;28;20194;-70
2023/04/22 01:05:30;;;;;;;11.57;10.00;;;10.50;99.90;;;-141.84;59.46;19911.41;5035024;28;20208;-69
2023/04/22 01:07:59;;;;;;;10.23;9.27;;;10.50;99.90;;;-141.84;59.83;19895.13;5036428;28;20194;-71
2023/04/22 01:10:27;;;;;;;10.27;9.03;;;10.50;99.90;;;-141.84;59.92;19864.66;5034132;28;20225;-70
2023/04/22 01:12:56;;;;;;;11.77;10.13;;;10.50;99.90;;;-141.84;60.25;19880.91;5034026;28;20229;-70
2023/04/22 01:15:24;;;;;;;11.90;9.23;;;10.40;99.90;;;-141.84;60.20;19874.81;5034808;28;20206;-70
2023/04/22 01:17:54;;;;;;;11.77;9.50;;;10.40;99.90;;;-141.84;60.10;19880.91;5034939;28;20206;-70
2023/04/22 01:20:28;;;;;;;10.07;9.03;;;10.40;99.90;;;-141.84;60.31;19876.84;5034559;28;20285;-70
2023/04/22 01:22:57;;;;;;;10.73;9.63;;;10.40;99.90;;;-141.84;60.69;19887.00;5033888;28;20194;-71
2023/04/22 01:25:27;;;;;;;10.73;9.53;;;10.40;99.90;;;-141.84;60.77;19878.88;5033098;28;20245;-70
2023/04/22 01:27:56;;;;;;;12.87;10.17;;;10.30;99.90;;;-141.84;59.66;19862.63;5034733;28;20186;-71
2023/04/22 01:30:24;;;;;;;10.37;9.27;;;10.40;99.90;;;-141.84;59.69;19903.25;5033558;28;20220;-70
2023/04/22 01:32:53;;;;;;;10.53;9.43;;;10.40;99.90;;;-141.84;59.61;19878.88;5032881;28;20225;-70
2023/04/22 01:35:21;;;;;;;10.57;8.80;;;10.50;99.90;;;-141.84;59.71;19895.13;5033624;28;20256;-69
2023/04/22 01:37:52;;;;;;;11.93;9.77;;;10.40;99.90;;;-141.84;59.33;19895.13;5033665;28;20201;-68
2023/04/22 01:40:22;;;;;;;11.10;9.07;;;10.50;99.90;;;-141.84;59.47;19909.34;5033375;28;20183;-71
2023/04/22 01:42:52;;;;;;;10.13;9.10;;;10.50;99.90;;;-141.84;59.74;19870.75;5033281;28;20377;-71
2023/04/22 01:45:20;;;;;;;11.93;9.30;;;10.50;99.90;;;-141.84;59.23;19884.97;5033894;28;20693;-71
2023/04/22 01:47:48;;;;;;;10.37;9.33;;;10.50;99.90;;;-141.84;58.88;19893.09;5033765;28;20202;-69
2023/04/22 01:50:17;;;;;;;10.73;9.63;;;10.60;99.90;;;-141.84;59.13;19913.44;5033095;28;20671;-70
2023/04/22 01:52:45;;;;;;;10.00;9.00;;;10.60;99.90;;;-141.84;59.69;19903.25;5033036;28;20283;-71
2023/04/22 01:55:13;;;;;;;10.30;9.30;;;10.50;99.90;;;-141.84;59.95;19872.78;5033134;28;20209;-69
2023/04/22 01:57:42;;;;;;;10.00;9.03;;;10.50;99.90;;;-141.84;60.00;19830.09;5032705;28;20293;-69
2023/04/22 02:00:13;;;;;;;10.00;9.00;;;10.40;99.90;;;-141.84;60.28;19858.56;5032534;28;20202;-70
2023/04/22 02:02:41;;;;;;;10.70;9.20;;;10.40;99.90;;;-141.84;60.02;19862.63;5032766;28;20193;-69
2023/04/22 02:05:10;;;;;;;11.73;10.00;;;10.40;99.90;;;-141.84;59.94;19866.69;5033034;28;20198;-69
2023/04/22 02:07:38;;;;;;;11.87;9.57;;;10.40;99.90;;;-141.84;59.50;19884.97;5032944;28;20202;-70
2023/04/22 02:10:08;;;;;;;11.57;9.50;;;10.40;99.90;;;-141.84;59.58;19895.13;5032767;28;20220;-70
2023/04/22 02:12:36;;;;;;;10.67;9.27;;;10.40;99.90;;;-141.84;59.93;19870.75;5032270;28;20226;-70
2023/04/22 02:15:06;;;;;;;12.97;9.80;;;10.40;99.90;;;-141.84;59.65;19909.34;5032263;28;20328;-70
2023/04/22 02:17:36;;;;;;;10.73;9.63;;;10.40;99.90;;;-141.84;59.65;19899.19;5032224;28;20224;-70
2023/04/22 02:20:06;;;;;;;10.73;9.07;;;10.40;99.90;;;-141.84;59.77;19878.88;5032326;28;20691;-71
2023/04/22 02:22:35;;;;;;;13.07;10.63;;;10.40;99.90;;;-141.84;60.03;19860.59;5032600;28;20276;-71
2023/04/22 02:25:04;;;;;;;11.50;10.27;;;10.30;99.90;;;-141.84;60.45;19858.56;5032788;28;20202;-69
2023/04/22 02:27:33;;;;;;;11.67;10.40;;;10.30;99.90;;;-141.84;60.89;19858.56;5032493;28;20202;-70
2023/04/22 02:30:02;;;;;;;11.13;9.90;;;10.20;99.90;;;-141.84;61.02;19856.53;5032157;28;20217;-70
2023/04/22 02:32:30;;;;;;;11.30;10.10;;;10.20;99.90;;;-141.84;61.41;19805.72;5032200;28;20214;-69
2023/04/22 02:35:00;;;;;;;12.63;10.30;;;10.10;99.90;;;-141.84;62.02;19801.66;5032172;28;20202;-70
2023/04/22 02:37:29;;;;;;;13.37;11.43;;;10.00;99.90;;;-141.84;61.76;19828.06;5031882;28;20208;-69
2023/04/22 02:39:57;;;;;;;11.30;10.20;;;10.00;99.90;;;-141.84;61.83;19817.91;5032181;28;20217;-70
2023/04/22 02:42:25;;;;;;;11.93;10.13;;;10.00;99.90;;;-141.84;61.88;19840.25;5031527;28;20705;-68
2023/04/22 02:44:53;;;;;;;10.93;9.83;;;9.90;99.90;;;-141.84;61.77;19824.00;5031534;28;20194;-70
2023/04/22 02:47:22;;;;;;;10.53;9.40;;;9.90;99.90;;;-141.84;61.98;19785.38;5032050;28;20205;-69
2023/04/22 02:49:50;;;;;;;11.93;10.03;;;9.90;99.90;;;-141.84;62.44;19793.50;5031768;28;20210;-70
2023/04/22 02:52:20;;;;;;;11.33;10.33;;;9.90;99.90;;;-141.84;62.33;19815.88;5032048;28;20202;-70
2023/04/22 02:54:48;;;;;;;11.33;10.17;;;9.80;99.90;;;-141.84;62.15;19789.44;5031940;28;20222;-70
2023/04/22 02:57:16;;;;;;;14.30;11.23;;;9.90;99.90;;;-141.84;61.83;19838.22;5032003;28;20217;-70
2023/04/22 02:59:45;;;;;;;11.67;10.43;;;9.90;99.90;;;-141.84;62.32;19797.59;5032226;28;20205;-71
2023/04/22 03:02:13;;;;;;;12.87;11.13;;;9.90;99.90;;;-141.84;62.11;19785.38;5032034;28;20213;-72
2023/04/22 03:04:41;;;;;;;15.23;11.53;;;9.80;99.90;;;-141.84;62.07;19832.13;5032261;28;20288;-70
2023/04/22 03:07:10;;;;;;;11.30;10.23;;;9.80;99.90;;;-141.84;62.27;19832.13;5031703;28;20670;-70
2023/04/22 03:09:39;;;;;;;11.97;10.80;;;9.80;99.90;;;-141.84;62.13;19761.00;5031893;28;20197;-71
2023/04/22 03:12:09;;;;;;;11.40;10.30;;;9.80;99.90;;;-141.84;61.88;19781.31;5032072;28;20429;-69
2023/04/22 03:14:40;;;;;;;14.77;11.10;;;9.90;99.90;;;-141.84;62.15;19799.63;5031248;28;20685;-70
2023/04/22 03:17:08;;;;;;;12.23;10.67;;;9.80;99.90;;;-141.84;62.41;19793.50;5031352;28;20187;-70
2023/04/22 03:19:36;;;;;;;13.47;10.90;;;9.80;99.90;;;-141.84;62.84;19765.06;5031731;28;20202;-69
2023/04/22 03:22:05;;;;;;;11.73;10.53;;;9.80;99.90;;;-141.84;63.05;19775.22;5031847;28;20312;-70
2023/04/22 03:24:33;;;;;;;12.47;10.73;;;9.70;99.90;;;-141.84;63.35;19750.84;5031733;28;20194;-70
2023/04/22 03:27:02;;;;;;;12.03;10.63;;;9.70;99.90;;;-141.84;63.59;19777.25;5031299;28;20234;-70
2023/04/22 03:29:30;;;;;;;13.13;11.60;;;9.60;99.90;;;-141.84;63.89;19781.31;5031220;28;20670;-70
2023/04/22 03:31:59;;;;;;;12.83;11.53;;;9.60;99.90;;;-141.84;63.57;19758.97;5031475;28;20202;-70
2023/04/22 03:34:27;;;;;;;13.13;10.87;;;9.60;99.90;;;-141.84;63.80;19750.84;5031304;28;20222;-71
2023/04/22 03:36:55;;;;;;;12.70;11.50;;;9.60;99.90;;;-141.84;64.00;19748.81;5031246;28;20670;-70
2023/04/22 03:39:23;;;;;;;13.83;11.83;;;9.50;99.90;;;-141.84;63.42;19783.34;5031333;28;20581;-70
2023/04/22 03:41:51;;;;;;;12.53;11.27;;;9.50;99.90;;;-141.84;63.50;19761.00;5031388;28;20202;-70
2023/04/22 03:44:21;;;;;;;13.00;11.27;;;9.60;99.90;;;-141.84;63.68;19752.88;5030870;28;20202;-68
2023/04/22 03:46:49;;;;;;;12.63;11.43;;;9.60;99.90;;;-141.84;63.63;19761.00;5031360;28;20212;-70
2023/04/22 03:49:18;;;;;;;12.73;11.00;;;9.50;99.90;;;-141.84;63.26;19769.13;5031470;28;20271;-70
2023/04/22 03:51:46;;;;;;;12.53;11.23;;;9.60;99.90;;;-141.84;63.17;19767.09;5031195;28;20210;-70
2023/04/22 03:54:14;;;;;;;14.10;11.53;;;9.60;99.90;;;-141.84;62.99;19756.94;5031793;28;20233;-69
2023/04/22 03:56:42;;;;;;;12.53;11.23;;;9.60;99.90;;;-141.84;63.14;19771.16;5035001;28;20265;-71
2023/04/22 03:59:10;;;;;;;13.33;12.03;;;9.60;99.90;;;-141.84;63.25;19761.00;5034664;28;20198;-70
2023/04/22 04:01:40;;;;;;;13.20;11.90;;;9.60;99.90;;;-141.84;62.82;19761.00;5034365;28;20544;-70
2023/04/22 04:04:08;;;;;;;13.47;12.10;;;9.60;99.90;;;-141.84;62.33;19787.41;5034658;28;20221;-70
2023/04/22 04:06:36;;;;;;;13.67;11.33;;;9.60;99.90;;;-141.84;62.82;19811.81;5035027;28;20218;-69
2023/04/22 04:09:05;;;;;;;12.80;11.50;;;9.60;99.90;;;-141.84;62.98;19738.66;5034875;28;20203;-69
2023/04/22 04:11:33;;;;;;;14.53;10.97;;;9.60;99.90;;;-141.84;62.30;19785.38;5034737;28;20208;-70
2023/04/22 04:14:02;;;;;;;14.23;10.97;;;9.70;99.90;;;-141.84;62.75;19799.63;5034154;28;20230;-71
2023/04/22 04:16:30;;;;;;;13.33;11.93;;;9.70;99.90;;;-141.84;63.01;19773.19;5034612;28;20217;-70
2023/04/22 04:19:00;;;;;;;13.27;11.93;;;9.70;99.90;;;-141.84;63.26;19752.88;5034704;28;20212;-70
2023/04/22 04:21:28;;;;;;;13.60;12.20;;;9.70;99.90;;;-141.84;63.17;19779.28;5034626;28;20209;-70
2023/04/22 04:23:56;;;;;;;11.70;10.50;;;9.60;99.90;;;-141.84;63.13;19775.22;5034549;28;20214;-70
2023/04/22 04:26:26;;;;;;;12.43;11.23;;;9.70;99.90;;;-141.84;62.35;19775.22;5034329;28;20241;-71
2023/04/22 04:28:55;;;;;;;13.13;11.80;;;9.70;99.90;;;-141.84;62.66;19750.84;5034470;28;20301;-69
2023/04/22 04:31:24;;;;;;;13.73;11.43;;;9.70;99.90;;;-141.84;62.86;19791.47;5033948;28;20211;-70
2023/04/22 04:33:52;;;;;;;13.00;11.20;;;9.70;99.90;;;-141.84;62.65;19754.91;5034445;28;20320;-70
2023/04/22 04:36:24;;;;;;;12.43;11.23;;;9.70;99.90;;;-141.84;62.54;19781.31;5034397;28;20202;-71
2023/04/22 04:38:52;;;;;;;14.07;12.00;;;9.80;99.90;;;-141.84;63.00;19765.06;5034554;28;20187;-69
2023/04/22 04:41:25;;;;;;;13.00;11.80;;;9.80;99.90;;;-141.84;63.10;19771.16;5034438;28;20206;-70
2023/04/22 04:43:53;;;;;;;13.47;12.10;;;9.80;99.90;;;-141.84;62.63;19807.75;5034307;28;20198;-70
2023/04/22 04:46:22;;;;;;;12.93;11.60;;;9.80;99.90;;;-141.84;62.03;19819.94;5034055;28;20209;-70
2023/04/22 04:48:52;;;;;;;13.50;12.10;;;9.90;99.90;;;-141.84;61.98;19811.81;5034212;28;20297;-69
2023/04/22 04:51:22;;;;;;;13.23;11.83;;;9.90;99.90;;;-141.84;61.88;19803.69;5034221;28;20191;-69
2023/04/22 04:53:50;;;;;;;13.63;11.70;;;10.00;99.90;;;-141.84;61.62;19799.63;5033848;28;20728;-69
2023/04/22 04:56:18;;;;;;;13.73;11.60;;;10.00;99.90;;;-141.84;60.58;19858.56;5034087;28;20213;-69
2023/04/22 04:58:46;;;;;;;12.47;11.20;;;10.20;99.90;;;-141.84;60.80;19864.66;5034116;28;20205;-70
2023/04/22 05:01:14;;;;;;;12.73;11.50;;;10.20;99.90;;;-141.84;60.09;19862.63;5033571;28;20209;-70
2023/04/22 05:03:43;;;;;;;12.23;10.97;;;10.40;99.90;;;-141.84;60.21;19862.63;5034005;28;20201;-69
2023/04/22 05:06:11;;;;;;;12.50;11.20;;;10.40;99.90;;;-141.84;60.43;19866.69;5033049;28;20233;-69
2023/04/22 05:08:41;;;;;;;12.33;11.13;;;10.50;99.90;;;-141.84;59.57;19895.13;5033684;28;20202;-70
2023/04/22 05:11:09;;;;;;;12.73;11.40;;;10.70;99.90;;;-141.84;58.70;19909.34;5033810;28;20213;-69
2023/04/22 05:13:37;;;;;;;12.60;11.30;;;10.80;99.90;;;-141.84;58.05;19978.47;5033219;28;20550;-70
2023/04/22 05:16:06;;;;;;;11.97;10.60;;;11.00;99.90;;;-141.84;57.06;20008.94;5033858;28;20226;-58
2023/04/22 05:18:35;;;;;;;12.57;11.00;;;11.20;99.90;;;-141.84;56.86;19980.50;5033602;28;20686;-58
2023/04/22 05:21:03;;;;;;;11.53;10.43;;;11.50;99.90;;;-141.84;56.08;20013.00;5033573;28;20202;-55
2023/04/22 05:23:31;;;;;;;12.13;10.93;;;11.70;99.90;;;-141.84;55.90;20047.56;5033275;28;20658;-59
2023/04/22 05:26:01;;;;;;;12.57;10.83;;;11.90;99.90;;;-141.84;55.61;20080.09;5033019;28;20581;-56
2023/04/22 05:28:29;;;;;;;13.30;11.00;;;12.10;99.90;;;-141.84;54.17;20074.00;5033276;28;20202;-57
2023/04/22 05:30:57;;;;;;;14.27;11.20;;;12.30;99.90;;;-141.84;53.79;20143.09;5033176;28;20212;-58
2023/04/22 05:33:26;;;;;;;13.20;11.43;;;12.60;99.90;;;-141.84;53.44;20155.28;5033106;28;20206;-56
2023/04/22 05:35:54;;;;;;;13.63;11.93;;;12.70;99.90;;;-141.84;52.96;20139.03;5033196;28;20221;-58
2023/04/22 05:38:24;;;;;;;12.60;10.67;;;12.70;99.90;;;-141.84;52.88;20161.38;5033294;28;20616;-58
2023/04/22 05:40:52;;;;;;;12.50;11.17;;;12.80;99.90;;;-141.84;52.56;20228.47;5033258;28;20194;-58
2023/04/22 05:43:22;;;;;;;12.43;10.70;;;13.00;99.90;;;-141.84;52.08;20195.94;5032995;28;20206;-59
2023/04/22 05:45:50;;;;;;;12.03;10.83;;;13.20;99.90;;;-141.84;51.72;20230.50;5032864;28;20217;-59
2023/04/22 05:48:18;;;;;;;12.40;11.07;;;13.30;99.90;;;-141.84;51.75;20228.47;5033005;28;20221;-58
2023/04/22 05:50:46;;;;;;;11.70;10.50;;;13.40;99.90;;;-141.84;50.78;20260.97;5032745;28;20206;-57
2023/04/22 05:53:15;;;;;;;12.20;9.57;;;13.50;99.90;;;-141.84;51.31;20244.72;5033061;28;20209;-58
2023/04/22 05:55:43;;;;;;;11.38;10.32;;;13.50;99.90;;;-141.84;51.01;20291.47;5032814;28;20237;-57
2023/04/22 05:58:11;;;;;;;14.53;10.57;;;13.70;99.90;;;-141.84;50.90;20301.63;5032751;28;20205;-58
2023/04/22 06:00:40;;;;;;;10.85;9.75;;;13.70;99.90;;;-141.84;50.58;20297.56;5032306;28;20209;-59
2023/04/22 06:03:08;;;;;;;10.57;9.52;;;13.80;99.90;;;-141.84;50.76;20285.38;5032676;28;20212;-59
2023/04/22 06:05:37;;;;;;;14.40;11.00;;;13.80;99.90;;;-141.84;50.69;20305.69;5032831;28;20289;-59
2023/04/22 06:08:05;;;;;;;14.50;10.77;;;13.80;99.90;;;-141.84;50.44;20271.16;5032507;28;20234;-57
2023/04/22 06:10:33;;;;;;;11.52;10.23;;;13.90;99.90;;;-141.84;50.55;20307.72;5032877;28;20209;-59
2023/04/22 06:13:02;;;;;;;10.52;9.50;;;13.90;99.90;;;-141.84;50.78;20317.91;5031929;28;20198;-57
2023/04/22 06:15:30;;;;;;;11.40;10.25;;;13.90;99.90;;;-141.84;51.06;20321.97;5032402;28;20484;-58
2023/04/22 06:18:00;;;;;;;10.50;9.50;;;13.90;99.90;;;-141.84;50.90;20293.50;5032405;28;20484;-58
2023/04/22 06:20:28;;;;;;;11.10;9.80;;;14.00;99.90;;;-141.84;51.50;20311.78;5032170;28;20670;-58
2023/04/22 06:22:56;;;;;;;11.27;9.82;;;14.10;99.90;;;-141.84;50.95;20342.28;5032156;28;20206;-56
2023/04/22 06:25:24;;;;;;;12.02;10.20;;;14.10;99.90;;;-141.84;50.73;20332.13;5032216;28;20202;-59
2023/04/22 06:27:53;;;;;;;11.00;9.90;;;14.10;99.90;;;-141.84;50.41;20328.06;5032293;28;20241;-58
2023/04/22 06:30:21;;;;;;;11.45;9.82;;;14.10;99.90;;;-141.84;49.97;20368.72;5032140;28;20571;-58
2023/04/22 06:32:49;;;;;;;11.77;10.35;;;14.20;99.90;;;-141.84;50.13;20372.78;5032180;28;20212;-60
2023/04/22 06:35:20;;;;;;;12.38;9.70;;;14.20;99.90;;;-141.84;50.72;20378.88;5031939;28;20626;-59
2023/04/22 06:37:48;;;;;;;10.77;8.95;;;14.20;99.90;;;-141.84;50.55;20358.56;5032184;28;20213;-59
2023/04/22 06:40:16;;;;;;;9.95;8.98;;;14.20;99.90;;;-141.84;50.88;20362.63;5031856;28;20202;-60
2023/04/22 06:42:44;;;;;;;9.77;8.77;;;14.30;99.90;;;-141.84;50.95;20364.66;5032130;28;20209;-59
2023/04/22 06:45:13;;;;;;;11.80;9.10;;;14.30;99.90;;;-141.84;51.09;20354.47;5031831;28;20229;-57
2023/04/22 06:47:41;;;;;;;9.30;8.35;;;14.30;99.90;;;-141.84;51.10;20374.81;5031877;28;20220;-58
2023/04/22 06:50:10;;;;;;;11.15;9.30;;;14.30;99.90;;;-141.84;51.21;20387.00;5032046;28;20224;-59
2023/04/22 06:52:40;;;;;;;10.43;8.57;;;14.40;99.90;;;-141.84;50.36;20407.34;5031804;28;20285;-59
2023/04/22 06:55:09;;;;;;;11.45;9.63;;;14.40;99.90;;;-141.84;50.15;20433.75;5031828;28;20202;-60
2023/04/22 06:57:37;;;;;;;13.02;8.95;;;14.40;99.90;;;-141.84;49.63;20427.66;5031558;28;20198;-59
2023/04/22 07:00:08;;;;;;;8.98;8.13;;;14.50;99.90;;;-141.84;49.77;20439.84;5031251;28;20210;-57
2023/04/22 07:02:36;;;;;;;10.65;8.85;;;14.50;99.90;;;-141.84;49.91;20417.50;5031415;28;20655;-58
2023/04/22 07:05:05;;;;;;;13.45;8.90;;;14.50;99.90;;;-141.84;50.29;20433.75;5031772;28;20198;-60
2023/04/22 07:07:33;;;;;;;10.10;9.07;;;14.50;99.90;;;-141.84;50.33;20447.97;5031458;28;20603;-58
2023/04/22 07:10:03;;;;;;;12.18;8.57;;;14.50;99.90;;;-141.84;50.41;20431.72;5031430;28;20701;-60
2023/04/22 07:12:31;;;;;;;9.95;8.80;;;14.60;99.90;;;-141.84;50.41;20433.75;5031616;28;20209;-59
2023/04/22 07:14:59;;;;;;;11.85;9.10;;;14.70;99.90;;;-141.84;50.30;20480.50;5031704;28;20206;-59
2023/04/22 07:17:27;;;;;;;11.60;8.65;;;14.80;99.90;;;-141.84;49.74;20472.38;5031304;28;20205;-59
2023/04/22 07:19:56;;;;;;;11.75;9.15;;;14.90;99.90;;;-141.84;49.88;20492.72;5031710;28;20293;-59
2023/04/22 07:22:24;;;;;;;14.18;8.77;;;14.90;99.90;;;-141.84;50.19;20478.47;5031672;28;20210;-59
2023/04/22 07:24:52;;;;;;;11.60;8.32;;;14.90;99.90;;;-141.84;50.00;20484.56;5031650;28;20202;-58
2023/04/22 07:27:21;;;;;;;8.88;7.97;;;15.00;99.90;;;-141.84;49.24;20527.25;5031206;28;20234;-58
2023/04/22 07:29:50;;;;;;;9.10;7.90;;;15.20;99.90;;;-141.84;48.34;20598.41;5032841;28;20206;-59
2023/04/22 07:32:18;;;;;;;8.60;7.80;;;15.40;99.90;;;-141.84;48.23;20590.28;5035410;28;20228;-58
2023/04/22 07:34:46;;;;;;;9.45;7.90;;;15.60;99.90;;;-141.84;48.04;20576.03;5035386;28;20670;-59
2023/04/22 07:37:14;;;;;;;8.80;7.95;;;15.60;99.90;;;-141.84;47.93;20606.53;5035453;28;20225;-59
2023/04/22 07:39:42;;;;;;;9.70;7.35;;;15.70;99.90;;;-141.84;48.18;20612.63;5035424;28;20217;-57
2023/04/22 07:42:11;;;;;;;9.25;8.15;;;15.70;99.90;;;-141.84;47.98;20645.16;5035056;28;20206;-59
2023/04/22 07:44:41;;;;;;;9.13;6.97;;;15.80;99.90;;;-141.84;47.72;20669.56;5034388;28;20690;-59
2023/04/22 07:47:09;;;;;;;8.25;7.38;;;16.00;99.90;;;-141.84;47.12;20693.94;5034927;28;20202;-57
2023/04/22 07:49:37;;;;;;;11.30;7.88;;;16.10;99.90;;;-141.84;47.08;20647.19;5034359;28;20674;-58
2023/04/22 07:52:06;;;;;;;10.18;6.85;;;16.10;99.90;;;-141.84;46.93;20675.66;5034532;28;20221;-60
2023/04/22 07:54:34;;;;;;;11.73;7.00;;;16.10;99.90;;;-141.84;46.47;20714.28;5035163;28;20202;-59
2023/04/22 07:57:02;;;;;;;10.07;6.60;;;16.20;99.90;;;-141.84;46.13;20710.22;5028063;28;20214;-58
2023/04/22 07:59:30;;;;;;;7.18;6.30;;;16.30;99.90;;;-141.84;45.20;20783.41;5025721;28;20572;-60
2023/04/22 08:02:00;;;;;;;8.38;6.30;;;16.40;99.90;;;-141.84;45.31;20756.97;5026890;28;20574;-59
2023/04/22 08:04:28;;;;;;;9.57;6.65;;;16.50;99.90;;;-141.84;45.47;20779.31;5024054;28;20625;-57
2023/04/22 08:06:56;;;;;;;10.07;6.90;;;16.60;99.90;;;-141.84;44.80;20809.81;5021956;28;20191;-58
2023/04/22 08:09:25;;;;;;;7.18;6.47;;;16.60;99.90;;;-141.84;45.08;20791.53;5024951;28;20202;-58
2023/04/22 08:11:53;;;;;;;10.48;6.88;;;16.80;99.90;;;-141.84;44.94;20822.03;5024498;28;20340;-59
2023/04/22 08:14:21;;;;;;;8.23;6.60;;;16.80;99.90;;;-141.84;44.71;20826.09;5025686;28;20245;-57
2023/04/22 08:16:51;;;;;;;8.15;6.22;;;16.90;99.90;;;-141.84;44.77;20832.19;5031267;28;20221;-59
2023/04/22 08:19:22;;;;;;;6.50;5.90;;;17.00;99.90;;;-141.84;43.85;20850.47;5034717;28;20209;-59
2023/04/22 08:21:50;;;;;;;9.80;6.25;;;17.10;99.90;;;-141.84;43.93;20874.88;5034147;28;20229;-57
2023/04/22 08:24:19;;;;;;;10.20;6.53;;;17.10;99.90;;;-141.84;43.68;20883.00;5034602;28;20210;-56
2023/04/22 08:26:47;;;;;;;6.68;6.00;;;17.20;99.90;;;-141.84;43.88;20909.44;5017105;28;20226;-59
2023/04/22 08:29:15;;;;;;;10.30;5.90;;;17.20;99.90;;;-141.84;43.80;20927.72;5025616;28;20217;-59
2023/04/22 08:31:44;;;;;;;8.50;5.75;;;17.30;99.90;;;-141.84;43.66;20966.34;5025617;28;20195;-59
2023/04/22 08:34:12;;;;;;;7.43;5.90;;;17.40;99.90;;;-141.84;43.02;20962.28;5022653;28;20663;-58
2023/04/22 08:36:42;;;;;;;7.97;6.25;;;17.40;99.90;;;-141.84;42.46;20978.56;5024084;28;20217;-59
2023/04/22 08:39:11;;;;;;;8.98;6.32;;;17.60;99.90;;;-141.84;42.01;20966.34;5022073;28;20198;-60
2023/04/22 08:41:40;;;;;;;6.82;5.55;;;17.60;99.90;;;-141.84;42.20;20984.66;5013073;28;20206;-58
2023/04/22 08:44:10;;;;;;;10.20;5.90;;;17.70;99.90;;;-141.84;41.79;21015.16;5018919;28;20194;-58
2023/04/22 08:46:40;;;;;;;7.78;5.28;;;17.80;99.90;;;-141.84;41.89;21076.13;5034168;28;20206;-58
2023/04/22 08:49:09;;;;;;;8.05;5.13;;;18.00;99.90;;;-141.84;40.74;21096.47;5034141;28;20186;-59
2023/04/22 08:51:38;;;;;;;7.90;5.28;;;18.10;99.90;;;-141.84;40.72;21098.50;5033951;28;20202;-59
2023/04/22 08:54:08;;;;;;;7.05;5.40;;;18.30;99.90;;;-141.84;40.63;21129.00;5033953;28;20308;-58
2023/04/22 08:56:41;;;;;;;7.38;5.20;;;18.40;99.90;;;-141.84;40.71;21135.09;5033965;28;20206;-57
2023/04/22 08:59:11;;;;;;;6.28;5.07;;;18.50;99.90;;;-141.84;40.16;21143.22;5033062;28;20195;-59
2023/04/22 09:01:41;;;;;;;10.18;4.70;;;18.50;99.90;;;-141.84;40.32;21159.50;5033757;28;20198;-59
2023/04/22 09:04:10;;;;;;;5.90;5.30;;;18.60;99.90;;;-141.84;40.24;21185.91;5033922;28;20562;-59
2023/04/22 09:06:40;;;;;;;8.73;4.97;;;18.70;99.90;;;-141.84;40.85;21192.03;5033316;28;20199;-59
2023/04/22 09:09:09;;;;;;;9.00;5.53;;;18.70;99.90;;;-141.84;40.86;21190.00;5033755;28;20204;-57
2023/04/22 09:11:38;;;;;;;7.03;5.30;;;18.80;99.90;;;-141.84;40.31;21200.16;5033389;28;20202;-59
2023/04/22 09:14:06;;;;;;;7.00;5.47;;;18.90;99.90;;;-141.84;40.26;21246.91;5033327;28;20202;-59
2023/04/22 09:16:42;;;;;;;8.57;5.65;;;19.00;99.90;;;-141.84;40.10;21248.94;5033010;28;20230;-60
2023/04/22 09:19:12;;;;;;;6.22;5.13;;;19.10;99.90;;;-141.84;40.29;21285.53;5033606;28;20236;-58
2023/04/22 09:21:41;;;;;;;6.57;5.60;;;19.10;99.90;;;-141.84;40.19;21291.66;5033261;28;20183;-60
2023/04/22 09:24:12;;;;;;;6.68;4.97;;;19.10;99.90;;;-141.84;40.67;21281.47;5033147;28;20201;-59
2023/04/22 09:26:42;;;;;;;6.03;4.72;;;19.00;99.90;;;-141.84;39.88;21269.28;5033118;28;20324;-59
2023/04/22 09:29:15;;;;;;;5.97;4.50;;;19.10;99.90;;;-141.84;39.15;21301.81;5033132;28;20567;-59
2023/04/22 09:31:49;;;;;;;7.10;4.55;;;19.20;99.90;;;-141.84;39.55;21314.00;5029607;28;20206;-59
2023/04/22 09:34:17;;;;;;;6.85;5.18;;;19.30;99.90;;;-141.84;39.64;21318.06;5027022;28;20202;-59
2023/04/22 09:36:45;;;;;;;6.30;5.05;;;19.40;99.90;;;-141.84;40.69;21309.94;5028365;28;20222;-59
2023/04/22 09:43:19;;;;;;;9.43;6.00;;;19.50;99.90;;;-141.84;40.20;21320.09;5022680;28;20201;-59
2023/04/22 09:45:47;;;;;;;6.65;5.57;;;19.50;99.90;;;-141.84;40.23;21346.53;5031214;28;20269;-57
2023/04/22 09:48:19;;;;;;;8.00;5.82;;;19.50;99.90;;;-141.84;40.19;21348.56;5027156;28;20198;-59
2023/04/22 09:50:51;;;;;;;7.10;5.55;;;19.60;99.90;;;-141.84;40.52;21399.41;5026127;28;20202;-59
2023/04/22 09:53:21;;;;;;;7.80;5.70;;;19.50;99.90;;;-141.84;40.39;21314.00;5028642;28;20206;-59
2023/04/22 09:55:54;;;;;;;6.15;5.25;;;19.40;99.90;;;-141.84;40.61;21314.00;5029772;28;20245;-59
2023/04/22 09:58:26;;;;;;;6.57;5.47;;;19.40;99.90;;;-141.84;40.81;21309.94;5029431;28;20217;-58
2023/04/22 10:00:56;;;;;;;5.40;4.90;;;19.40;99.90;;;-141.84;40.24;21366.88;5026522;28;20198;-60
2023/04/22 10:03:24;;;;;;;7.75;5.25;;;19.40;99.90;;;-141.84;39.83;21362.81;5026767;28;20657;-58
2023/04/22 10:05:53;;;;;;;6.93;5.50;;;19.60;99.90;;;-141.84;39.93;21370.94;5032027;28;20647;-60
2023/04/22 10:08:21;;;;;;;6.47;5.35;;;19.70;99.90;;;-141.84;40.22;21364.84;5029447;28;20201;-59
2023/04/22 10:10:49;;;;;;;7.38;5.93;;;19.70;99.90;;;-141.84;39.81;21381.09;5033184;28;20198;-60